createdAt,value
2019-05-03T00:02:44.035Z,10.23
2019-05-03T00:05:19.182Z,11.03
2019-05-03T00:07:53.829Z,10.57
2019-05-03T00:10:27.391Z,10.33
2019-05-03T00:13:01.936Z,11.03
2019-05-03T00:15:43.214Z,11.97
2019-05-03T00:18:16.700Z,10.63
2019-05-03T00:20:50.140Z,13.73
2019-05-03T00:23:23.534Z,9.73
2019-05-03T00:25:56.948Z,10.68
2019-05-03T00:28:32.078Z,11.20
2019-05-03T00:31:05.644Z,11.63
2019-05-03T00:33:39.846Z,12.53
2019-05-03T00:36:15.171Z,11.50
2019-05-03T00:38:49.398Z,11.93
2019-05-03T00:41:22.857Z,10.97
2019-05-03T00:43:56.284Z,11.47
2019-05-03T00:46:29.702Z,12.47
2019-05-03T00:49:03.813Z,12.97
2019-05-03T00:51:37.519Z,12.20
2019-05-03T00:54:12.638Z,11.87
2019-05-03T00:56:46.230Z,13.67
2019-05-03T00:59:19.651Z,11.47
2019-05-03T01:01:53.082Z,15.08
2019-05-03T01:04:26.504Z,12.03
2019-05-03T01:07:02.107Z,15.67
2019-05-03T01:09:35.611Z,13.37
2019-05-03T01:12:09.140Z,13.80
2019-05-03T01:14:44.180Z,13.30
2019-05-03T01:17:17.632Z,13.73
2019-05-03T01:19:52.132Z,13.60
2019-05-03T01:22:25.746Z,13.97
2019-05-03T01:24:59.150Z,13.87
2019-05-03T01:27:32.841Z,15.27
2019-05-03T01:30:07.436Z,15.53
2019-05-03T01:32:41.845Z,14.20
2019-05-03T01:35:15.488Z,14.00
2019-05-03T01:37:48.926Z,15.60
2019-05-03T01:40:22.343Z,15.03
2019-05-03T01:42:55.783Z,14.87
2019-05-03T01:45:29.199Z,15.07
2019-05-03T01:48:12.461Z,17.47
2019-05-03T01:50:52.063Z,17.33
2019-05-03T01:53:32.133Z,17.00
2019-05-03T01:56:05.565Z,17.20
2019-05-03T01:58:38.988Z,17.87
2019-05-03T02:01:14.153Z,18.33
2019-05-03T02:03:52.360Z,17.70
2019-05-03T02:06:25.840Z,17.80
2019-05-03T02:08:59.261Z,20.03
2019-05-03T02:11:32.706Z,21.77
2019-05-03T02:14:06.454Z,18.27
2019-05-03T02:16:41.920Z,14.87
2019-05-03T02:19:15.033Z,13.60
2019-05-03T02:21:48.443Z,13.07
2019-05-03T02:24:22.177Z,14.10
2019-05-03T02:26:55.653Z,12.77
2019-05-03T02:29:29.083Z,14.20
2019-05-03T02:32:03.302Z,13.60
2019-05-03T02:34:37.022Z,14.10
2019-05-03T02:37:13.599Z,14.60
2019-05-03T02:39:47.113Z,12.67
2019-05-03T02:42:20.524Z,13.23
2019-05-03T02:44:55.349Z,14.80
2019-05-03T02:47:30.550Z,12.87
2019-05-03T02:50:08.185Z,16.13
2019-05-03T02:52:41.576Z,16.27
2019-05-03T02:55:16.257Z,14.20
2019-05-03T02:57:49.910Z,14.70
2019-05-03T03:00:26.378Z,16.90
2019-05-03T03:02:59.866Z,15.30
2019-05-03T03:05:35.269Z,15.30
2019-05-03T03:08:09.363Z,16.37
2019-05-03T03:10:45.491Z,15.17
2019-05-03T03:13:21.919Z,15.20
2019-05-03T03:15:57.590Z,15.23
2019-05-03T03:18:36.408Z,14.90
2019-05-03T03:21:15.710Z,14.97
2019-05-03T03:24:06.789Z,16.03
2019-05-03T03:26:43.308Z,16.60
2019-05-03T03:29:17.923Z,18.33
2019-05-03T03:32:00.333Z,15.87
2019-05-03T03:34:38.694Z,16.40
2019-05-03T03:37:15.344Z,18.70
2019-05-03T03:39:47.759Z,15.23
2019-05-03T03:42:25.014Z,19.40
2019-05-03T03:44:57.920Z,17.40
2019-05-03T03:47:35.869Z,17.87
2019-05-03T03:50:10.318Z,16.43
2019-05-03T03:52:45.320Z,17.87
2019-05-03T03:55:18.776Z,16.00
2019-05-03T03:57:55.725Z,19.10
2019-05-03T04:00:28.678Z,14.13
2019-05-03T04:03:05.874Z,14.70
2019-05-03T04:05:38.690Z,13.80
2019-05-03T04:08:12.180Z,14.13
2019-05-03T04:10:46.312Z,13.50
2019-05-03T04:13:21.727Z,14.57
2019-05-03T04:15:57.202Z,15.43
2019-05-03T04:18:33.125Z,14.53
2019-05-03T04:21:07.275Z,15.63
2019-05-03T04:23:41.334Z,14.33
2019-05-03T04:26:16.348Z,13.73
2019-05-03T04:28:50.164Z,15.60
2019-05-03T04:31:26.248Z,15.20
2019-05-03T04:33:58.708Z,15.30
2019-05-03T04:36:32.122Z,15.07
2019-05-03T04:39:07.088Z,14.67
2019-05-03T04:41:40.514Z,20.43
2019-05-03T04:44:15.509Z,16.70
2019-05-03T04:46:49.054Z,16.97
2019-05-03T04:49:22.471Z,15.40
2019-05-03T04:51:56.112Z,18.50
2019-05-03T04:54:35.570Z,15.57
2019-05-03T04:57:09.150Z,17.53
2019-05-03T04:59:44.985Z,16.60
2019-05-03T05:02:17.721Z,15.73
2019-05-03T05:04:51.207Z,17.00
2019-05-03T05:07:26.139Z,15.27
2019-05-03T05:09:59.880Z,16.90
2019-05-03T05:12:35.517Z,18.93
2019-05-03T05:15:08.510Z,18.73
2019-05-03T05:17:46.147Z,17.27
2019-05-03T05:20:30.472Z,18.17
2019-05-03T05:23:04.608Z,16.80
2019-05-03T05:25:55.062Z,18.30
2019-05-03T05:28:39.181Z,17.77
2019-05-03T05:31:12.714Z,18.97
2019-05-03T05:33:46.110Z,18.07
2019-05-03T05:36:19.545Z,19.33
2019-05-03T05:38:55.134Z,15.10
2019-05-03T05:41:28.197Z,20.77
2019-05-03T05:44:01.609Z,19.43
2019-05-03T05:46:36.690Z,21.80
2019-05-03T05:49:11.727Z,22.83
2019-05-03T05:51:45.163Z,16.73
2019-05-03T05:54:18.578Z,20.50
2019-05-03T05:56:54.704Z,17.43
2019-05-03T05:59:30.013Z,19.43
2019-05-03T06:02:05.188Z,16.73
2019-05-03T06:04:38.609Z,18.77
2019-05-03T06:07:28.358Z,16.60
2019-05-03T06:10:06.398Z,15.97
2019-05-03T06:12:50.706Z,18.63
2019-05-03T06:15:34.597Z,16.52
2019-05-03T06:18:09.589Z,17.87
2019-05-03T06:20:47.653Z,18.03
2019-05-03T06:23:25.417Z,19.37
2019-05-03T06:25:59.531Z,15.20
2019-05-03T06:28:35.283Z,14.57
2019-05-03T06:31:10.527Z,15.80
2019-05-03T06:33:45.034Z,15.67
2019-05-03T06:36:18.579Z,13.77
2019-05-03T06:38:52.021Z,13.77
2019-05-03T06:41:25.453Z,12.97
2019-05-03T06:43:58.870Z,12.43
2019-05-03T06:46:46.089Z,12.17
2019-05-03T06:49:19.487Z,16.03
2019-05-03T06:51:54.634Z,12.83
2019-05-03T06:54:29.984Z,11.83
2019-05-03T06:57:05.730Z,12.30
2019-05-03T06:59:42.720Z,13.80
2019-05-03T07:02:25.180Z,12.40
2019-05-03T07:05:00.334Z,11.67
2019-05-03T07:07:41.387Z,10.90
2019-05-03T07:10:25.369Z,12.00
2019-05-03T07:13:00.569Z,11.20
2019-05-03T07:15:35.108Z,14.17
2019-05-03T07:18:08.662Z,13.00
2019-05-03T07:20:44.566Z,10.90
2019-05-03T07:23:18.009Z,11.03
2019-05-03T07:25:51.422Z,10.57
2019-05-03T07:28:24.965Z,11.27
2019-05-03T07:30:58.348Z,11.50
2019-05-03T07:33:34.867Z,12.57
2019-05-03T07:36:08.420Z,12.20
2019-05-03T07:38:41.863Z,11.20
2019-05-03T07:41:15.271Z,13.93
2019-05-03T07:43:48.709Z,12.70
2019-05-03T07:46:22.205Z,11.70
2019-05-03T07:48:55.640Z,13.60
2019-05-03T07:51:29.050Z,12.57
2019-05-03T07:54:04.533Z,16.80
2019-05-03T07:56:39.303Z,15.63
2019-05-03T07:59:14.897Z,15.53
2019-05-03T08:01:54.527Z,13.40
2019-05-03T08:04:27.437Z,11.70
2019-05-03T08:07:00.865Z,14.00
2019-05-03T08:09:35.063Z,14.33
2019-05-03T08:12:08.596Z,12.40
2019-05-03T08:14:42.048Z,12.93
2019-05-03T08:17:15.484Z,14.20
2019-05-03T08:19:48.950Z,14.53
2019-05-03T08:22:22.357Z,15.40
2019-05-03T08:24:55.799Z,13.23
2019-05-03T08:27:29.206Z,14.80
2019-05-03T08:30:04.674Z,13.10
2019-05-03T08:32:57.842Z,14.50
2019-05-03T08:35:32.903Z,15.57
2019-05-03T08:38:06.492Z,13.83
2019-05-03T08:40:41.651Z,13.93
2019-05-03T08:43:15.599Z,14.57
2019-05-03T08:45:49.125Z,15.35
2019-05-03T08:48:24.818Z,14.30
2019-05-03T08:50:57.746Z,14.70
2019-05-03T08:53:31.172Z,14.37
2019-05-03T08:56:05.253Z,15.57
2019-05-03T08:58:38.781Z,13.67
2019-05-03T09:01:14.623Z,13.47
2019-05-03T09:03:47.339Z,10.70
2019-05-03T09:06:20.762Z,10.93
2019-05-03T09:08:57.136Z,9.17
2019-05-03T09:11:34.007Z,10.40
2019-05-03T09:14:06.227Z,10.17
2019-05-03T09:16:39.666Z,11.73
2019-05-03T09:19:14.759Z,12.83
2019-05-03T09:21:48.317Z,12.77
2019-05-03T09:24:21.741Z,12.07
2019-05-03T09:26:55.652Z,11.60
2019-05-03T09:29:40.228Z,15.10
2019-05-03T09:32:05.152Z,14.00
2019-05-03T09:34:38.743Z,10.97
2019-05-03T09:37:12.180Z,10.60
2019-05-03T09:39:45.597Z,12.20
2019-05-03T09:42:19.039Z,10.17
2019-05-03T09:44:52.671Z,6.63
2019-05-03T09:47:26.017Z,9.77
2019-05-03T09:50:02.007Z,7.77
2019-05-03T09:52:35.514Z,5.47
2019-05-03T09:55:10.962Z,5.60
2019-05-03T09:57:44.546Z,5.37
2019-05-03T10:00:18.486Z,5.30
2019-05-03T10:02:51.926Z,5.83
2019-05-03T10:05:25.677Z,5.67
2019-05-03T10:07:59.312Z,5.40
2019-05-03T10:10:35.686Z,6.00
2019-05-03T10:13:14.892Z,5.93
2019-05-03T10:15:45.115Z,5.97
2019-05-03T10:18:18.770Z,5.80
2019-05-03T10:20:52.253Z,4.93
2019-05-03T10:23:36.039Z,4.37
2019-05-03T10:26:10.090Z,5.13
2019-05-03T10:28:43.588Z,5.17
2019-05-03T10:31:17.493Z,5.30
2019-05-03T10:33:52.560Z,5.60
2019-05-03T10:36:26.063Z,4.10
2019-05-03T10:38:59.556Z,5.77
2019-05-03T10:41:34.774Z,4.40
2019-05-03T10:44:08.416Z,4.97
2019-05-03T10:46:41.844Z,5.93
2019-05-03T10:49:15.486Z,5.30
2019-05-03T10:51:50.670Z,3.43
2019-05-03T10:54:24.087Z,3.63
2019-05-03T10:56:59.120Z,3.30
2019-05-03T10:59:32.572Z,2.77
2019-05-03T11:02:25.330Z,3.33
2019-05-03T11:04:58.988Z,3.17
2019-05-03T11:07:34.454Z,4.00
2019-05-03T11:10:08.201Z,2.87
2019-05-03T11:12:41.661Z,3.03
2019-05-03T11:15:15.699Z,3.90
2019-05-03T11:17:49.164Z,2.83
2019-05-03T11:20:36.663Z,3.97
2019-05-03T11:23:10.129Z,3.17
2019-05-03T11:25:45.253Z,4.63
2019-05-03T11:28:20.466Z,2.30
2019-05-03T11:31:01.369Z,3.60
2019-05-03T11:33:36.508Z,3.33
2019-05-03T11:36:26.343Z,2.77
2019-05-03T11:38:59.741Z,3.50
2019-05-03T11:41:35.817Z,5.13
2019-05-03T11:44:27.384Z,3.50
2019-05-03T11:47:00.803Z,4.13
2019-05-03T11:49:34.834Z,3.60
2019-05-03T11:52:08.450Z,3.10
2019-05-03T11:54:41.856Z,2.77
2019-05-03T11:57:16.927Z,2.73
2019-05-03T11:59:50.340Z,3.60
2019-05-03T12:02:31.180Z,2.47
2019-05-03T12:05:10.961Z,2.57
2019-05-03T12:07:45.542Z,3.80
2019-05-03T12:10:32.661Z,3.30
2019-05-03T12:12:57.240Z,2.10
2019-05-03T12:15:30.654Z,2.90
2019-05-03T12:18:06.802Z,3.20
2019-05-03T12:20:41.622Z,2.07
2019-05-03T12:23:16.808Z,2.57
2019-05-03T12:25:51.117Z,3.13
2019-05-03T12:28:25.727Z,4.13
2019-05-03T12:30:59.228Z,5.13
2019-05-03T12:33:35.144Z,1.97
2019-05-03T12:36:07.902Z,2.43
2019-05-03T12:38:41.424Z,2.27
2019-05-03T12:41:15.108Z,3.20
2019-05-03T12:43:48.659Z,3.00
2019-05-03T12:46:22.089Z,2.50
2019-05-03T12:48:55.546Z,5.20
2019-05-03T12:51:28.965Z,1.70
2019-05-03T12:54:04.710Z,1.87
2019-05-03T12:56:37.546Z,3.03
2019-05-03T12:59:28.836Z,1.50
2019-05-03T13:02:06.890Z,3.93
2019-05-03T13:04:41.990Z,2.67
2019-05-03T13:07:20.077Z,3.60
2019-05-03T13:09:54.475Z,2.43
2019-05-03T13:12:29.631Z,2.93
2019-05-03T13:15:05.063Z,2.30
2019-05-03T13:17:38.513Z,5.07
2019-05-03T13:20:15.682Z,4.67
2019-05-03T13:22:49.088Z,4.33
2019-05-03T13:25:22.520Z,3.60
2019-05-03T13:27:55.925Z,2.00
2019-05-03T13:30:29.347Z,2.83
2019-05-03T13:33:02.730Z,3.17
2019-05-03T13:35:36.172Z,2.33
2019-05-03T13:38:09.569Z,4.13
2019-05-03T13:40:45.188Z,3.33
2019-05-03T13:43:18.272Z,3.80
2019-05-03T13:45:51.697Z,4.03
2019-05-03T13:48:26.278Z,4.87
2019-05-03T13:51:00.107Z,3.77
2019-05-03T13:53:34.889Z,2.43
2019-05-03T13:56:08.515Z,4.87
2019-05-03T13:58:42.035Z,3.37
2019-05-03T14:01:15.518Z,3.83
2019-05-03T14:03:48.999Z,4.50
2019-05-03T14:06:24.149Z,2.93
2019-05-03T14:08:57.570Z,6.53
2019-05-03T14:11:30.992Z,3.70
2019-05-03T14:14:04.809Z,2.97
2019-05-03T14:16:38.409Z,4.60
2019-05-03T14:19:16.359Z,3.00
2019-05-03T14:21:54.722Z,3.37
2019-05-03T14:24:28.226Z,4.13
2019-05-03T14:27:01.653Z,7.30
2019-05-03T14:29:35.052Z,4.20
2019-05-03T14:32:08.485Z,5.17
2019-05-03T14:34:41.941Z,11.43
2019-05-03T14:37:15.354Z,5.00
2019-05-03T14:39:48.813Z,4.67
2019-05-03T14:42:22.312Z,4.23
2019-05-03T14:44:55.719Z,5.37
2019-05-03T14:47:29.304Z,3.00
2019-05-03T14:50:05.240Z,6.27
2019-05-03T14:52:38.100Z,7.50
2019-05-03T14:55:16.335Z,4.83
2019-05-03T14:57:55.277Z,4.27
2019-05-03T15:00:36.367Z,6.83
2019-05-03T15:03:11.441Z,4.63
2019-05-03T15:05:44.951Z,4.33
2019-05-03T15:08:18.354Z,3.53
2019-05-03T15:10:51.909Z,4.43
2019-05-03T15:13:25.437Z,5.43
2019-05-03T15:15:58.832Z,4.60
2019-05-03T15:18:32.316Z,5.10
2019-05-03T15:21:05.807Z,6.07
2019-05-03T15:23:39.265Z,3.30
2019-05-03T15:26:12.662Z,4.17
2019-05-03T15:28:46.108Z,4.63
2019-05-03T15:31:19.496Z,4.13
2019-05-03T15:33:55.387Z,3.93
2019-05-03T15:36:28.188Z,2.67
2019-05-03T15:39:01.622Z,4.77
2019-05-03T15:41:36.477Z,3.80
2019-05-03T15:44:11.634Z,3.90
2019-05-03T15:46:52.175Z,6.20
2019-05-03T15:49:27.691Z,3.00
2019-05-03T15:52:00.814Z,2.67
2019-05-03T15:54:35.307Z,3.43
2019-05-03T15:57:09.815Z,4.30
2019-05-03T15:59:44.502Z,3.93
2019-05-03T16:02:17.962Z,4.23
2019-05-03T16:04:51.406Z,4.63
2019-05-03T16:07:25.076Z,4.03
2019-05-03T16:09:58.629Z,4.27
2019-05-03T16:12:32.059Z,3.90
2019-05-03T16:15:07.316Z,3.60
2019-05-03T16:17:40.727Z,3.50
2019-05-03T16:20:14.449Z,5.83
2019-05-03T16:22:47.946Z,2.37
2019-05-03T16:25:21.764Z,3.57
2019-05-03T16:28:02.366Z,3.20
2019-05-03T16:30:40.359Z,3.23
2019-05-03T16:33:26.652Z,5.20
2019-05-03T16:35:49.047Z,3.20
2019-05-03T16:38:24.669Z,3.23
2019-05-03T16:40:57.649Z,5.07
2019-05-03T16:43:31.344Z,4.60
2019-05-03T16:46:05.620Z,5.67
2019-05-03T16:48:39.365Z,4.37
2019-05-03T16:51:15.088Z,4.17
2019-05-03T16:53:47.996Z,3.93
2019-05-03T16:56:24.358Z,3.43
2019-05-03T16:58:57.556Z,4.17
2019-05-03T17:01:30.980Z,4.80
2019-05-03T17:04:22.696Z,4.57
2019-05-03T17:07:05.472Z,2.63
2019-05-03T17:09:46.344Z,3.93
2019-05-03T17:12:21.458Z,3.67
2019-05-03T17:14:57.022Z,2.90
2019-05-03T17:17:30.669Z,4.00
2019-05-03T17:20:06.412Z,5.00
2019-05-03T17:22:39.837Z,3.93
2019-05-03T17:25:15.002Z,3.60
2019-05-03T17:27:48.507Z,4.60
2019-05-03T17:30:22.075Z,5.70
2019-05-03T17:32:55.552Z,4.60
2019-05-03T17:35:28.988Z,5.00
2019-05-03T17:38:02.891Z,4.20
2019-05-03T17:40:37.966Z,3.87
2019-05-03T17:43:15.524Z,5.00
2019-05-03T17:45:54.883Z,3.83
2019-05-03T17:48:28.340Z,3.77
2019-05-03T17:51:01.733Z,4.60
2019-05-03T17:53:39.529Z,5.20
2019-05-03T17:56:17.258Z,3.80
2019-05-03T17:58:52.389Z,6.87
2019-05-03T18:01:44.605Z,2.80
2019-05-03T18:04:31.406Z,5.17
2019-05-03T18:07:06.651Z,4.30
2019-05-03T18:09:41.711Z,4.70
2019-05-03T18:12:15.172Z,5.03
2019-05-03T18:14:48.539Z,4.73
2019-05-03T18:17:22.003Z,4.33
2019-05-03T18:19:55.529Z,5.67
2019-05-03T18:22:28.977Z,6.50
2019-05-03T18:25:02.472Z,6.07
2019-05-03T18:27:35.903Z,4.33
2019-05-03T18:30:09.485Z,10.93
2019-05-03T18:32:42.966Z,5.43
2019-05-03T18:35:16.480Z,3.77
2019-05-03T18:37:58.738Z,4.10
2019-05-03T18:40:35.297Z,5.10
2019-05-03T18:43:16.026Z,4.53
2019-05-03T18:45:54.566Z,4.77
2019-05-03T18:48:28.154Z,6.00
2019-05-03T18:51:01.630Z,5.30
2019-05-03T18:53:35.059Z,7.97
2019-05-03T18:56:08.549Z,5.87
2019-05-03T18:58:42.012Z,3.70
2019-05-03T19:01:15.571Z,11.23
2019-05-03T19:03:50.645Z,3.80
2019-05-03T19:06:24.200Z,5.27
2019-05-03T19:09:05.445Z,4.90
2019-05-03T19:11:56.529Z,7.93
2019-05-03T19:14:29.943Z,9.07
2019-05-03T19:17:08.097Z,8.70
2019-05-03T19:19:44.667Z,6.63
2019-05-03T19:22:18.221Z,6.27
2019-05-03T19:24:51.807Z,5.23
2019-05-03T19:27:25.304Z,5.77
2019-05-03T19:29:58.734Z,5.40
2019-05-03T19:32:32.214Z,3.67
2019-05-03T19:35:08.101Z,5.62
2019-05-03T19:37:41.710Z,5.27
2019-05-03T19:40:15.403Z,3.87
2019-05-03T19:42:48.949Z,6.83
2019-05-03T19:45:24.672Z,6.27
2019-05-03T19:47:57.657Z,6.30
2019-05-03T19:50:31.080Z,6.70
2019-05-03T19:53:14.366Z,9.10
2019-05-03T19:55:50.521Z,8.73
2019-05-03T19:58:24.758Z,10.97
2019-05-03T20:01:15.968Z,6.73
2019-05-03T20:03:51.029Z,9.60
2019-05-03T20:06:31.955Z,8.80
2019-05-03T20:09:11.573Z,8.17
2019-05-03T20:11:46.046Z,6.17
2019-05-03T20:14:19.494Z,5.17
2019-05-03T20:16:54.875Z,8.10
2019-05-03T20:19:28.077Z,6.90
2019-05-03T20:22:01.501Z,6.87
2019-05-03T20:24:35.011Z,7.20
2019-05-03T20:27:08.473Z,4.87
2019-05-03T20:29:46.370Z,3.30
2019-05-03T20:32:19.742Z,4.57
2019-05-03T20:34:55.014Z,5.50
2019-05-03T20:37:28.402Z,6.90
2019-05-03T20:40:02.659Z,6.57
2019-05-03T20:42:55.844Z,7.30
2019-05-03T20:45:36.946Z,6.63
2019-05-03T20:48:12.108Z,7.30
2019-05-03T20:50:45.529Z,6.60
2019-05-03T20:53:18.999Z,8.37
2019-05-03T20:55:54.174Z,5.80
2019-05-03T20:58:27.697Z,5.27
2019-05-03T21:01:01.195Z,5.20
2019-05-03T21:03:34.615Z,9.27
2019-05-03T21:06:08.096Z,5.80
2019-05-03T21:08:52.292Z,7.17
2019-05-03T21:11:16.697Z,5.57
2019-05-03T21:13:50.274Z,12.93
2019-05-03T21:16:37.240Z,4.50
2019-05-03T21:19:13.977Z,5.50
2019-05-03T21:21:49.176Z,6.07
2019-05-03T21:24:26.211Z,4.77
2019-05-03T21:26:59.370Z,3.90
2019-05-03T21:29:34.612Z,4.43
2019-05-03T21:32:08.014Z,6.85
2019-05-03T21:34:41.456Z,5.77
2019-05-03T21:37:15.199Z,6.43
2019-05-03T21:39:48.580Z,4.37
2019-05-03T21:42:22.005Z,5.20
2019-05-03T21:44:55.630Z,5.80
2019-05-03T21:47:42.568Z,5.13
2019-05-03T21:50:17.945Z,6.07
2019-05-03T21:52:51.355Z,4.43
2019-05-03T21:55:24.846Z,6.93
2019-05-03T21:57:58.207Z,4.77
2019-05-03T22:00:42.673Z,4.90
2019-05-03T22:03:16.400Z,4.60
2019-05-03T22:05:54.911Z,6.07
2019-05-03T22:08:25.026Z,4.50
2019-05-03T22:10:58.662Z,5.53
2019-05-03T22:13:32.043Z,7.20
2019-05-03T22:16:15.886Z,5.90
2019-05-03T22:18:49.285Z,9.17
2019-05-03T22:21:39.506Z,6.73
2019-05-03T22:24:16.967Z,6.67
2019-05-03T22:27:01.217Z,6.47
2019-05-03T22:29:35.598Z,6.40
2019-05-03T22:32:09.360Z,5.67
2019-05-03T22:34:43.465Z,5.37
2019-05-03T22:37:16.912Z,5.40
2019-05-03T22:39:50.342Z,6.70
2019-05-03T22:42:25.290Z,6.17
2019-05-03T22:44:58.961Z,5.73
2019-05-03T22:47:32.396Z,6.40
2019-05-03T22:50:06.718Z,6.50
2019-05-03T22:52:40.140Z,6.03
2019-05-03T22:55:15.318Z,8.90
2019-05-03T22:57:48.715Z,6.93
2019-05-03T23:00:22.177Z,7.70
2019-05-03T23:02:55.610Z,8.60
2019-05-03T23:05:29.018Z,7.83
2019-05-03T23:08:02.443Z,6.10
2019-05-03T23:10:35.843Z,4.70
2019-05-03T23:13:09.259Z,5.07
2019-05-03T23:15:42.680Z,6.77
2019-05-03T23:18:16.115Z,8.10
2019-05-03T23:21:00.061Z,8.87
2019-05-03T23:23:49.905Z,6.87
2019-05-03T23:26:25.259Z,7.80
2019-05-03T23:28:58.483Z,6.90
2019-05-03T23:31:34.365Z,6.15
2019-05-03T23:34:07.958Z,4.63
2019-05-03T23:36:41.382Z,7.97
2019-05-03T23:39:14.808Z,8.17
2019-05-03T23:41:48.204Z,5.53
2019-05-03T23:44:21.615Z,7.83
2019-05-03T23:46:59.126Z,6.53
2019-05-03T23:49:32.553Z,7.67
2019-05-03T23:52:07.664Z,6.70
2019-05-03T23:54:41.119Z,4.30
2019-05-03T23:57:14.519Z,7.13
2019-05-03T23:59:47.942Z,9.30
